createdAt,value
2023-03-22T00:04:40.145Z,9.24
2023-03-22T00:11:03.187Z,9.23
2023-03-22T00:17:23.213Z,9.19
2023-03-22T00:23:46.235Z,9.11
2023-03-22T00:30:06.240Z,9
2023-03-22T00:36:29.289Z,8.92
2023-03-22T00:42:49.153Z,8.84
2023-03-22T00:49:12.264Z,8.74
2023-03-22T00:55:32.294Z,8.71
2023-03-22T01:01:55.199Z,8.71
2023-03-22T01:08:15.236Z,8.7
2023-03-22T01:14:38.237Z,8.67
2023-03-22T01:20:58.232Z,8.66
2023-03-22T01:27:21.190Z,8.69
2023-03-22T01:33:41.285Z,8.71
2023-03-22T01:40:04.187Z,8.68
2023-03-22T01:46:24.320Z,8.65
2023-03-22T01:52:47.209Z,8.67
2023-03-22T01:59:07.254Z,8.69
2023-03-22T02:05:30.250Z,8.71
2023-03-22T02:11:50.326Z,8.75
2023-03-22T02:18:13.183Z,8.8
2023-03-22T02:24:33.228Z,8.79
2023-03-22T02:30:56.244Z,8.77
2023-03-22T02:37:16.309Z,8.74
2023-03-22T02:43:39.202Z,8.71
2023-03-22T02:49:59.253Z,8.65
2023-03-22T02:56:22.218Z,8.56
2023-03-22T03:02:42.268Z,8.45
2023-03-22T03:09:05.300Z,8.37
2023-03-22T03:15:25.283Z,8.44
2023-03-22T03:21:48.205Z,8.53
2023-03-22T03:28:08.265Z,8.58
2023-03-22T03:34:31.163Z,8.56
2023-03-22T03:40:51.226Z,8.55
2023-03-22T03:47:14.220Z,8.57
2023-03-22T03:53:34.228Z,8.61
2023-03-22T03:59:57.205Z,8.71
2023-03-22T04:06:17.266Z,8.92
2023-03-22T04:12:40.156Z,9.16
2023-03-22T04:29:05.124Z,9.5
2023-03-22T04:35:25.157Z,9.51
2023-03-22T04:41:48.209Z,9.47
2023-03-22T04:48:08.246Z,9.44
2023-03-22T04:54:31.194Z,9.39
2023-03-22T05:00:51.167Z,9.34
2023-03-22T05:07:14.266Z,9.26
2023-03-22T05:13:34.216Z,9.15
2023-03-22T05:19:57.188Z,9.04
2023-03-22T05:26:17.283Z,8.99
2023-03-22T05:32:40.215Z,8.95
2023-03-22T05:39:00.223Z,8.88
2023-03-22T05:45:23.258Z,8.6
2023-03-22T05:51:43.187Z,8.3
2023-03-22T05:58:06.248Z,8.14
2023-03-22T06:04:26.227Z,8.13
2023-03-22T06:10:49.234Z,8.22
2023-03-22T06:17:09.302Z,8.37
2023-03-22T06:23:32.226Z,8.54
2023-03-22T06:29:52.201Z,8.72
2023-03-22T06:36:15.172Z,8.87
2023-03-22T06:42:35.237Z,9.02
2023-03-22T06:48:58.184Z,9.15
2023-03-22T06:55:18.174Z,9.29
2023-03-22T07:01:41.316Z,9.48
2023-03-22T07:08:01.231Z,9.68
2023-03-22T07:14:24.203Z,9.88
2023-03-22T07:20:44.248Z,10.03
2023-03-22T07:27:07.173Z,10.24
2023-03-22T07:33:27.184Z,10.52
2023-03-22T07:39:50.227Z,10.92
2023-03-22T07:46:10.191Z,11.41
2023-03-22T07:52:33.413Z,11.86
2023-03-22T07:58:53.271Z,12.18
2023-03-22T08:05:16.200Z,12.42
2023-03-22T08:11:36.178Z,12.57
2023-03-22T08:17:59.195Z,12.58
2023-03-22T08:24:19.653Z,12.55
2023-03-22T08:30:42.264Z,12.6
2023-03-22T08:37:02.277Z,12.82
2023-03-22T08:43:25.185Z,13.1
2023-03-22T08:49:45.200Z,13.28
2023-03-22T08:56:08.241Z,13.3
2023-03-22T09:02:28.232Z,13.36
2023-03-22T09:08:51.182Z,13.62
2023-03-22T09:15:11.270Z,13.8
2023-03-22T09:21:34.167Z,13.99
2023-03-22T09:27:54.185Z,14.14
2023-03-22T09:34:17.181Z,14.34
2023-03-22T09:57:58.713Z,14.68
2023-03-22T10:04:18.202Z,14.73
2023-03-22T10:10:41.220Z,14.75
2023-03-22T10:17:01.206Z,14.91
2023-03-22T10:23:24.163Z,14.93
2023-03-22T10:29:44.192Z,14.95
2023-03-22T10:36:07.215Z,15.08
2023-03-22T10:42:27.177Z,15.23
2023-03-22T10:48:50.198Z,15.59
2023-03-22T10:55:10.237Z,15.79
2023-03-22T11:01:33.327Z,15.85
2023-03-22T11:07:53.174Z,16.01
2023-03-22T11:14:16.287Z,16.19
2023-03-22T11:20:36.265Z,16.29
2023-03-22T11:26:59.150Z,16.36
2023-03-22T11:33:19.229Z,16.46
2023-03-22T11:39:42.171Z,16.44
2023-03-22T11:46:02.197Z,16.45
2023-03-22T11:52:25.241Z,16.37
2023-03-22T11:58:45.157Z,16.19
2023-03-22T12:05:08.294Z,16.07
2023-03-22T12:11:28.177Z,15.99
2023-03-22T12:17:51.239Z,15.96
2023-03-22T12:24:11.176Z,15.8
2023-03-22T12:30:34.452Z,15.71
2023-03-22T12:36:54.191Z,15.58
2023-03-22T12:43:17.167Z,15.44
2023-03-22T12:49:37.186Z,15.3
2023-03-22T12:56:00.165Z,15.22
2023-03-22T13:02:20.220Z,15.14
2023-03-22T13:08:43.216Z,15.01
2023-03-22T13:15:03.188Z,14.86
2023-03-22T13:21:26.450Z,14.68
2023-03-22T13:27:47.197Z,14.57
2023-03-22T13:34:10.276Z,14.49
2023-03-22T13:40:30.156Z,14.46
2023-03-22T13:46:53.233Z,14.52
2023-03-22T13:53:13.172Z,14.6
2023-03-22T13:59:36.244Z,14.58
2023-03-22T14:05:56.817Z,14.5
2023-03-22T14:12:19.237Z,14.5
2023-03-22T14:18:39.184Z,14.49
2023-03-22T14:49:24.194Z,14.45
2023-03-22T14:55:44.164Z,14.45
2023-03-22T15:02:07.218Z,14.48
2023-03-22T15:08:27.235Z,14.53
2023-03-22T15:14:50.174Z,14.58
2023-03-22T15:21:10.202Z,14.62
2023-03-22T15:37:38.163Z,14.66
2023-03-22T15:43:58.184Z,14.63
2023-03-22T15:50:21.259Z,14.59
2023-03-22T15:56:41.205Z,14.56
2023-03-22T16:03:04.232Z,14.52
2023-03-22T16:09:24.194Z,14.49
2023-03-22T16:15:47.226Z,14.46
2023-03-22T16:22:07.190Z,14.44
2023-03-22T16:28:30.250Z,14.41
2023-03-22T16:34:50.216Z,14.39
2023-03-22T16:41:13.169Z,14.37
2023-03-22T16:47:33.174Z,14.35
2023-03-22T16:53:56.207Z,14.35
2023-03-22T17:00:16.195Z,14.33
2023-03-22T17:06:39.190Z,14.33
2023-03-22T17:12:59.181Z,14.3
2023-03-22T17:19:22.202Z,14.27
2023-03-22T17:25:42.186Z,14.26
2023-03-22T17:38:33.215Z,14.2
2023-03-22T17:44:49.301Z,14.17
2023-03-22T17:51:08.218Z,14.14
2023-03-22T17:57:53.935Z,14.13
2023-03-22T18:03:52.189Z,14.1
2023-03-22T18:10:15.223Z,14.08
2023-03-22T18:16:52.561Z,14.07
2023-03-22T18:22:58.300Z,14.06
2023-03-22T18:29:18.185Z,14.03
2023-03-22T18:35:41.180Z,14.01
2023-03-22T18:42:12.607Z,14.02
2023-03-22T18:48:24.193Z,14.04
2023-03-22T18:54:44.186Z,14.02
2023-03-22T19:01:07.162Z,13.99
2023-03-22T19:07:45.090Z,14.02
2023-03-22T19:14:25.415Z,14.05
2023-03-22T19:20:10.168Z,14.06
2023-03-22T19:26:34.097Z,14.05
2023-03-22T19:33:15.657Z,14.02
2023-03-22T19:39:16.552Z,13.98
2023-03-22T19:45:36.212Z,13.99
2023-03-22T19:51:59.199Z,13.99
2023-03-22T19:58:19.160Z,13.98
2023-03-22T20:04:42.235Z,13.96
2023-03-22T20:11:02.370Z,13.96
2023-03-22T20:17:26.302Z,13.99
2023-03-22T20:23:45.495Z,13.99
2023-03-22T20:30:08.208Z,14.01
2023-03-22T20:36:28.262Z,14.03
2023-03-22T20:42:51.235Z,14.04
2023-03-22T20:58:59.199Z,14.01
2023-03-22T21:05:22.160Z,13.95
2023-03-22T21:11:42.308Z,13.88
2023-03-22T21:18:05.217Z,13.85
2023-03-22T21:24:25.401Z,13.8
2023-03-22T21:30:48.187Z,13.78
2023-03-22T21:37:08.183Z,13.75
2023-03-22T21:43:31.252Z,13.8
2023-03-22T21:49:51.196Z,13.85
2023-03-22T21:56:14.222Z,13.88
2023-03-22T22:02:34.152Z,13.92
2023-03-22T22:08:57.157Z,13.96
2023-03-22T22:15:17.202Z,13.98
2023-03-22T22:21:40.173Z,13.95
2023-03-22T22:28:00.186Z,13.82
2023-03-22T22:34:23.238Z,13.65
2023-03-22T22:40:43.183Z,13.48
2023-03-22T22:47:06.223Z,13.3
2023-03-22T22:53:26.246Z,13.17
2023-03-22T22:59:49.207Z,13.11
2023-03-22T23:22:47.166Z,13.05
2023-03-22T23:29:07.171Z,13.08
2023-03-22T23:35:30.255Z,13.13
2023-03-22T23:41:50.208Z,13.22
2023-03-22T23:48:13.134Z,13.29
2023-03-22T23:54:33.211Z,13.35
